createdAt,value
2022-08-10T00:00:12.323Z,101323.59
2022-08-10T00:02:39.000Z,101319.44
2022-08-10T00:05:06.213Z,101321.06
2022-08-10T00:07:32.937Z,101315.56
2022-08-10T00:09:59.636Z,101310.56
2022-08-10T00:12:53.669Z,101318.31
2022-08-10T00:15:52.685Z,101315.56
2022-08-10T00:18:02.271Z,101308.31
2022-08-10T00:20:29.047Z,101316.53
2022-08-10T00:22:57.794Z,101310.25
2022-08-10T00:25:24.931Z,101309.16
2022-08-10T00:28:03.139Z,101314.63
2022-08-10T00:30:31.116Z,101318.00
2022-08-10T00:33:00.923Z,101310.47
2022-08-10T00:35:27.995Z,101317.53
2022-08-10T00:37:57.923Z,101315.94
2022-08-10T00:40:35.158Z,101318.22
2022-08-10T00:43:08.031Z,101315.63
2022-08-10T00:45:35.834Z,101316.31
2022-08-10T00:48:02.723Z,101313.09
2022-08-10T00:50:29.726Z,101316.31
2022-08-10T00:52:56.706Z,101316.31
2022-08-10T00:55:23.466Z,101322.59
2022-08-10T00:57:54.866Z,101317.91
2022-08-10T01:00:21.783Z,101314.69
2022-08-10T01:02:48.525Z,101308.94
2022-08-10T01:05:15.436Z,101321.34
2022-08-10T01:08:10.470Z,101321.84
2022-08-10T01:10:52.557Z,101317.31
2022-08-10T01:13:47.842Z,101317.31
2022-08-10T01:16:45.757Z,101315.72
2022-08-10T01:19:40.663Z,101318.00
2022-08-10T01:22:19.453Z,101317.22
2022-08-10T01:25:09.385Z,101321.28
2022-08-10T01:28:00.446Z,101322.56
2022-08-10T01:30:31.710Z,101324.81
2022-08-10T01:33:07.987Z,101319.34
2022-08-10T01:35:41.391Z,101321.28
2022-08-10T01:38:20.608Z,101318.72
2022-08-10T01:40:53.828Z,101316.13
2022-08-10T01:43:21.357Z,101315.19
2022-08-10T01:45:53.391Z,101322.94
2022-08-10T01:48:32.241Z,101322.47
2022-08-10T01:50:59.406Z,101321.97
2022-08-10T01:53:39.996Z,101330.50
2022-08-10T01:56:14.103Z,101337.09
2022-08-10T01:58:42.429Z,101327.31
2022-08-10T02:01:16.995Z,101329.56
2022-08-10T02:04:03.862Z,101331.94
2022-08-10T02:06:42.041Z,101322.00
2022-08-10T02:09:11.683Z,101331.66
2022-08-10T02:12:05.702Z,101332.59
2022-08-10T02:14:33.584Z,101335.47
2022-08-10T02:17:09.353Z,101334.00
2022-08-10T02:20:01.653Z,101330.00
2022-08-10T02:22:37.854Z,101337.72
2022-08-10T02:25:07.985Z,101336.91
2022-08-10T02:27:36.031Z,101337.72
2022-08-10T02:30:04.969Z,101341.09
2022-08-10T02:32:52.854Z,101336.44
2022-08-10T02:35:22.214Z,101342.03
2022-08-10T02:37:53.410Z,101340.28
2022-08-10T02:45:01.476Z,101343.66
2022-08-10T02:45:24.708Z,101344.44
2022-08-10T02:46:13.135Z,101353.25
2022-08-10T02:48:46.044Z,101352.78
2022-08-10T02:51:20.048Z,101344.09
2022-08-10T02:54:13.753Z,101356.81
2022-08-10T02:56:46.408Z,101348.44
2022-08-10T02:59:40.151Z,101352.13
2022-08-10T03:02:10.608Z,101343.06
2022-08-10T03:04:55.602Z,101352.22
2022-08-10T03:07:43.598Z,101349.44
2022-08-10T03:10:16.662Z,101352.28
2022-08-10T03:12:45.632Z,101350.22
2022-08-10T03:15:15.941Z,101355.81
2022-08-10T03:17:58.248Z,101349.38
2022-08-10T03:20:36.774Z,101350.78
2022-08-10T03:23:11.305Z,101349.00
2022-08-10T03:25:39.113Z,101351.75
2022-08-10T03:28:07.239Z,101346.78
2022-08-10T03:30:35.163Z,101357.84
2022-08-10T03:33:07.405Z,101360.56
2022-08-10T03:35:34.706Z,101358.59
2022-08-10T03:38:01.800Z,101359.84
2022-08-10T03:40:45.465Z,101358.84
2022-08-10T03:43:21.252Z,101364.44
2022-08-10T03:45:58.181Z,101364.75
2022-08-10T03:48:32.139Z,101366.66
2022-08-10T03:51:12.953Z,101363.94
2022-08-10T03:54:05.093Z,101365.06
2022-08-10T03:56:31.926Z,101361.34
2022-08-10T03:59:00.256Z,101363.59
2022-08-10T04:02:45.388Z,101371.78
2022-08-10T04:04:19.286Z,101372.91
2022-08-10T04:06:54.522Z,101374.94
2022-08-10T04:09:23.522Z,101383.91
2022-08-10T04:11:50.338Z,101386.34
2022-08-10T04:14:47.098Z,101391.00
2022-08-10T04:17:03.779Z,101384.06
2022-08-10T04:19:43.214Z,101382.44
2022-08-10T04:22:20.939Z,101389.59
2022-08-10T04:24:51.560Z,101384.47
2022-08-10T04:27:18.278Z,101395.19
2022-08-10T04:29:45.349Z,101394.69
2022-08-10T04:32:15.861Z,101391.16
2022-08-10T04:34:44.846Z,101388.72
2022-08-10T04:37:13.708Z,101395.78
2022-08-10T04:39:40.698Z,101380.41
2022-08-10T04:42:07.709Z,101389.09
2022-08-10T04:44:34.606Z,101388.00
2022-08-10T04:47:01.293Z,101391.72
2022-08-10T04:49:52.161Z,101389.28
2022-08-10T04:52:14.914Z,101376.97
2022-08-10T04:54:41.747Z,101388.38
2022-08-10T04:57:08.877Z,101381.59
2022-08-10T04:59:35.834Z,101386.03
2022-08-10T05:02:28.218Z,101384.81
2022-08-10T05:04:49.356Z,101386.59
2022-08-10T05:07:18.447Z,101385.34
2022-08-10T05:10:01.132Z,101385.50
2022-08-10T05:12:39.279Z,101389.06
2022-08-10T05:15:11.697Z,101389.97
2022-08-10T05:17:39.700Z,101398.66
2022-08-10T05:20:09.149Z,101396.75
2022-08-10T05:22:38.179Z,101401.09
2022-08-10T05:25:06.939Z,101405.13
2022-08-10T05:27:34.126Z,101399.06
2022-08-10T05:30:02.846Z,101407.09
2022-08-10T05:32:56.462Z,101407.09
2022-08-10T05:35:21.935Z,101398.59
2022-08-10T05:38:11.818Z,101398.78
2022-08-10T05:40:39.312Z,101405.66
2022-08-10T05:43:06.958Z,101399.41
2022-08-10T05:45:33.978Z,101404.09
2022-08-10T05:48:54.256Z,101407.81
2022-08-10T05:51:09.289Z,101411.25
2022-08-10T05:53:59.688Z,101409.78
2022-08-10T05:56:25.987Z,101417.03
2022-08-10T05:58:52.889Z,101416.59
2022-08-10T06:01:24.899Z,101419.03
2022-08-10T06:03:58.443Z,101416.19
2022-08-10T06:06:27.773Z,101420.81
2022-08-10T06:08:56.574Z,101419.88
2022-08-10T06:12:28.685Z,101410.41
2022-08-10T06:14:31.871Z,101412.53
2022-08-10T06:16:58.730Z,101414.97
2022-08-10T06:19:26.470Z,101416.59
2022-08-10T06:22:00.586Z,101416.53
2022-08-10T06:24:31.167Z,101411.59
2022-08-10T06:26:59.369Z,101424.16
2022-08-10T06:29:29.618Z,101416.13
2022-08-10T06:31:57.349Z,101412.75
2022-08-10T06:34:32.188Z,101421.91
2022-08-10T06:37:01.635Z,101427.38
2022-08-10T06:39:36.586Z,101421.28
2022-08-10T06:42:15.802Z,101433.16
2022-08-10T06:45:01.953Z,101432.34
2022-08-10T06:47:35.331Z,101423.84
2022-08-10T06:50:10.535Z,101424.50
2022-08-10T06:52:40.113Z,101430.94
2022-08-10T06:55:12.471Z,101424.81
2022-08-10T06:57:44.661Z,101424.00
2022-08-10T07:00:34.200Z,101421.09
2022-08-10T07:03:07.231Z,101428.50
2022-08-10T07:05:40.518Z,101428.38
2022-08-10T07:08:11.097Z,101430.44
2022-08-10T07:10:45.703Z,101428.03
2022-08-10T07:13:16.144Z,101428.50
2022-08-10T07:16:03.956Z,101430.44
2022-08-10T07:18:32.501Z,101421.88
2022-08-10T07:21:02.004Z,101425.91
2022-08-10T07:23:57.350Z,101424.97
2022-08-10T07:26:17.857Z,101423.34
2022-08-10T07:28:48.080Z,101421.50
2022-08-10T07:31:54.861Z,101413.22
2022-08-10T07:34:09.383Z,101423.34
2022-08-10T07:36:37.889Z,101423.13
2022-08-10T07:39:05.975Z,101419.13
2022-08-10T07:41:34.824Z,101422.81
2022-08-10T07:44:04.328Z,101420.34
2022-08-10T07:46:33.425Z,101419.56
2022-08-10T07:49:16.771Z,101421.97
2022-08-10T07:51:54.565Z,101420.13
2022-08-10T07:54:24.365Z,101427.28
2022-08-10T07:56:53.772Z,101420.94
2022-08-10T07:59:29.506Z,101418.03
2022-08-10T08:01:58.199Z,101412.34
2022-08-10T08:04:26.031Z,101422.69
2022-08-10T08:06:53.871Z,101416.84
2022-08-10T08:09:22.089Z,101414.69
2022-08-10T08:11:50.725Z,101426.69
2022-08-10T08:14:22.196Z,101420.50
2022-08-10T08:16:52.127Z,101419.47
2022-08-10T08:19:28.228Z,101417.19
2022-08-10T08:24:10.887Z,101414.13
2022-08-10T08:24:52.074Z,101412.25
2022-08-10T08:27:20.302Z,101410.13
2022-08-10T08:29:49.432Z,101399.88
2022-08-10T08:32:17.621Z,101404.75
2022-08-10T08:34:46.167Z,101396.22
2022-08-10T08:38:28.868Z,101399.44
2022-08-10T08:40:33.462Z,101397.13
2022-08-10T08:43:21.423Z,101391.53
2022-08-10T08:46:28.417Z,101397.03
2022-08-10T08:49:08.647Z,101393.56
2022-08-10T08:52:07.903Z,101386.78
2022-08-10T08:56:03.842Z,101390.00
2022-08-10T08:58:26.400Z,101383.78
2022-08-10T09:01:13.458Z,101377.00
2022-08-10T09:03:43.071Z,101381.84
2022-08-10T09:06:47.073Z,101374.00
2022-08-10T09:09:41.722Z,101366.00
2022-08-10T09:12:34.026Z,101373.78
2022-08-10T09:15:08.343Z,101368.75
2022-08-10T09:18:01.493Z,101368.88
2022-08-10T09:20:46.479Z,101355.97
2022-08-10T09:24:05.325Z,101356.81
2022-08-10T09:26:22.059Z,101348.78
2022-08-10T09:29:12.840Z,101354.47
2022-08-10T09:33:05.330Z,101354.44
2022-08-10T09:36:24.404Z,101347.00
2022-08-10T09:38:10.501Z,101351.03
2022-08-10T09:41:00.368Z,101352.50
2022-08-10T09:43:38.671Z,101342.94
2022-08-10T09:46:12.024Z,101340.88
2022-08-10T09:48:54.648Z,101343.28
2022-08-10T09:51:47.378Z,101346.63
2022-08-10T09:54:52.106Z,101346.84
2022-08-10T09:57:50.835Z,101345.50
2022-08-10T10:00:24.835Z,101337.69
2022-08-10T10:03:29.058Z,101332.38
2022-08-10T10:06:19.111Z,101331.22
2022-08-10T10:09:10.156Z,101327.28
2022-08-10T10:12:09.703Z,101326.00
2022-08-10T10:15:24.202Z,101326.91
2022-08-10T10:18:07.731Z,101305.22
2022-08-10T10:20:53.714Z,101304.31
2022-08-10T10:23:29.179Z,101307.75
2022-08-10T10:26:18.480Z,101306.16
2022-08-10T10:29:30.603Z,101305.06
2022-08-10T10:31:57.399Z,101299.69
2022-08-10T10:34:27.127Z,101290.94
2022-08-10T10:36:54.392Z,101297.19
2022-08-10T10:39:25.855Z,101298.53
2022-08-10T10:42:05.101Z,101289.75
2022-08-10T10:44:42.085Z,101291.97
2022-08-10T10:47:35.033Z,101280.88
2022-08-10T10:50:05.922Z,101279.69
2022-08-10T10:52:43.131Z,101281.44
2022-08-10T10:55:23.196Z,101284.06
2022-08-10T10:58:04.939Z,101269.50
2022-08-10T11:00:42.215Z,101275.16
2022-08-10T11:03:21.429Z,101274.69
2022-08-10T11:06:09.660Z,101260.53
2022-08-10T11:08:38.678Z,101257.75
2022-08-10T11:12:00.459Z,101266.81
2022-08-10T11:14:29.191Z,101260.97
2022-08-10T11:17:08.578Z,101265.09
2022-08-10T11:20:05.013Z,101266.13
2022-08-10T11:23:05.018Z,101254.00
2022-08-10T11:25:36.322Z,101253.78
2022-08-10T11:28:22.199Z,101255.78
2022-08-10T11:30:54.935Z,101255.06
2022-08-10T11:33:33.700Z,101249.34
2022-08-10T11:36:40.433Z,101247.44
2022-08-10T11:39:24.861Z,101245.38
2022-08-10T11:42:08.930Z,101243.34
2022-08-10T11:45:00.075Z,101236.81
2022-08-10T11:47:46.453Z,101235.19
2022-08-10T11:50:22.723Z,101236.88
2022-08-10T11:53:00.109Z,101237.44
2022-08-10T11:55:31.287Z,101229.25
2022-08-10T11:58:29.808Z,101224.78
2022-08-10T12:00:59.644Z,101229.38
2022-08-10T12:03:32.650Z,101228.16
2022-08-10T12:06:04.384Z,101216.03
2022-08-10T12:10:11.623Z,101226.16
2022-08-10T12:11:24.490Z,101227.25
2022-08-10T12:14:22.524Z,101223.91
2022-08-10T12:16:55.167Z,101214.03
2022-08-10T12:20:01.689Z,101211.09
2022-08-10T12:22:30.957Z,101211.19
2022-08-10T12:25:03.217Z,101210.63
2022-08-10T12:27:38.677Z,101208.00
2022-08-10T12:30:08.893Z,101211.97
2022-08-10T12:32:56.653Z,101210.28
2022-08-10T12:36:15.002Z,101206.03
2022-08-10T12:38:49.547Z,101195.44
2022-08-10T12:41:43.904Z,101202.09
2022-08-10T12:44:41.076Z,101193.69
2022-08-10T12:47:32.505Z,101186.59
2022-08-10T12:50:30.988Z,101189.34
2022-08-10T12:53:15.123Z,101184.91
2022-08-10T12:55:43.993Z,101175.69
2022-08-10T12:59:00.304Z,101181.84
2022-08-10T13:01:16.087Z,101179.88
2022-08-10T13:04:23.258Z,101167.22
2022-08-10T13:06:36.191Z,101162.47
2022-08-10T13:09:09.415Z,101176.81
2022-08-10T13:12:38.366Z,101176.81
2022-08-10T13:15:28.274Z,101171.25
2022-08-10T13:18:03.711Z,101173.28
2022-08-10T13:20:35.395Z,101168.84
2022-08-10T13:23:11.336Z,101159.34
2022-08-10T13:25:40.529Z,101159.72
2022-08-10T13:28:35.453Z,101153.38
2022-08-10T13:31:03.359Z,101154.59
2022-08-10T13:34:40.999Z,101141.09
2022-08-10T13:36:28.765Z,101146.66
2022-08-10T13:38:57.325Z,101143.47
2022-08-10T13:41:39.169Z,101131.19
2022-08-10T13:44:08.240Z,101143.44
2022-08-10T13:46:40.102Z,101142.25
2022-08-10T13:49:09.936Z,101130.41
2022-08-10T13:51:54.305Z,101127.22
2022-08-10T13:54:36.987Z,101126.03
2022-08-10T13:57:07.463Z,101126.81
2022-08-10T14:00:35.009Z,101119.66
2022-08-10T14:02:28.670Z,101124.41
2022-08-10T14:04:57.819Z,101122.06
2022-08-10T14:07:26.690Z,101105.38
2022-08-10T14:09:59.356Z,101115.72
2022-08-10T14:12:33.518Z,101108.59
2022-08-10T14:15:03.131Z,101107.78
2022-08-10T14:17:31.429Z,101102.59
2022-08-10T14:20:00.188Z,101102.25
2022-08-10T14:22:35.748Z,101108.16
2022-08-10T14:25:11.413Z,101101.03
2022-08-10T14:28:02.855Z,101093.06
2022-08-10T14:30:33.065Z,101097.44
2022-08-10T14:33:04.498Z,101096.28
2022-08-10T14:36:19.050Z,101098.22
2022-08-10T14:38:28.123Z,101098.13
2022-08-10T14:40:58.783Z,101090.22
2022-08-10T14:43:29.213Z,101091.81
2022-08-10T14:46:05.817Z,101086.34
2022-08-10T14:48:39.799Z,101089.91
2022-08-10T14:51:09.277Z,101076.34
2022-08-10T14:53:38.322Z,101081.88
2022-08-10T14:56:09.359Z,101077.94
2022-08-10T14:59:05.648Z,101087.94
2022-08-10T15:02:01.315Z,101076.41
2022-08-10T15:04:24.787Z,101080.72
2022-08-10T15:06:57.530Z,101068.81
2022-08-10T15:09:28.084Z,101072.38
2022-08-10T15:12:19.530Z,101074.72
2022-08-10T15:14:58.068Z,101080.13
2022-08-10T15:17:29.863Z,101071.88
2022-08-10T15:20:13.457Z,101072.78
2022-08-10T15:22:50.189Z,101061.75
2022-08-10T15:25:25.084Z,101065.34
2022-08-10T15:28:10.336Z,101076.78
2022-08-10T15:31:00.280Z,101068.00
2022-08-10T15:33:57.580Z,101061.66
2022-08-10T15:37:36.119Z,101066.88
2022-08-10T15:40:25.914Z,101054.97
2022-08-10T15:42:34.145Z,101064.88
2022-08-10T15:45:01.231Z,101060.88
2022-08-10T15:47:46.237Z,101058.38
2022-08-10T15:50:23.501Z,101058.28
2022-08-10T15:53:02.095Z,101058.25
2022-08-10T15:55:46.892Z,101054.38
2022-08-10T15:58:38.783Z,101053.56
2022-08-10T16:02:14.907Z,101045.28
2022-08-10T16:04:19.875Z,101049.63
2022-08-10T16:06:58.601Z,101055.94
2022-08-10T16:10:24.577Z,101043.66
2022-08-10T16:12:32.594Z,101042.06
2022-08-10T16:15:07.927Z,101044.84
2022-08-10T16:17:55.269Z,101039.28
2022-08-10T16:20:31.557Z,101047.09
2022-08-10T16:23:02.258Z,101038.34
2022-08-10T16:25:44.572Z,101039.53
2022-08-10T16:28:23.326Z,101036.41
2022-08-10T16:30:55.839Z,101039.16
2022-08-10T16:33:27.582Z,101035.94
2022-08-10T16:36:17.047Z,101031.88
2022-08-10T16:38:45.805Z,101035.81
2022-08-10T16:42:02.094Z,101034.19
2022-08-10T16:44:02.267Z,101037.59
2022-08-10T16:46:30.238Z,101032.88
2022-08-10T16:48:59.367Z,101026.97
2022-08-10T16:51:26.404Z,101027.69
2022-08-10T16:53:54.052Z,101030.03
2022-08-10T16:56:34.217Z,101025.97
2022-08-10T16:59:20.804Z,101030.72
2022-08-10T17:01:53.669Z,101022.03
2022-08-10T17:04:22.650Z,101014.09
2022-08-10T17:06:56.427Z,101026.38
2022-08-10T17:09:30.114Z,101020.97
2022-08-10T17:11:59.355Z,101019.28
2022-08-10T17:14:28.901Z,101018.88
2022-08-10T17:17:06.544Z,101016.19
2022-08-10T17:19:45.119Z,101016.63
2022-08-10T17:22:17.929Z,101020.97
2022-08-10T17:24:49.974Z,101018.47
2022-08-10T17:28:04.481Z,101015.13
2022-08-10T17:30:15.844Z,101010.69
2022-08-10T17:32:57.156Z,101012.63
2022-08-10T17:35:28.713Z,101020.44
2022-08-10T17:38:12.583Z,101017.81
2022-08-10T17:40:55.160Z,101012.19
2022-08-10T17:43:57.768Z,101014.53
2022-08-10T17:46:13.254Z,101009.34
2022-08-10T17:48:44.363Z,101016.88
2022-08-10T17:51:13.893Z,101018.06
2022-08-10T17:54:00.487Z,101017.69
2022-08-10T17:56:31.472Z,101027.00
2022-08-10T17:59:02.620Z,101015.16
2022-08-10T18:01:41.378Z,101015.75
2022-08-10T18:04:22.401Z,101027.19
2022-08-10T18:06:54.530Z,101026.06
2022-08-10T18:09:47.119Z,101025.94
2022-08-10T18:12:19.109Z,101021.91
2022-08-10T18:14:50.096Z,101024.19
2022-08-10T18:17:23.100Z,101020.25
2022-08-10T18:20:00.405Z,101027.31
2022-08-10T18:22:29.066Z,101024.44
2022-08-10T18:24:58.894Z,101024.72
2022-08-10T18:28:04.327Z,101029.66
2022-08-10T18:30:19.171Z,101031.56
2022-08-10T18:32:50.170Z,101035.50
2022-08-10T18:35:18.798Z,101040.88
2022-08-10T18:37:50.645Z,101034.44
2022-08-10T18:40:18.689Z,101039.88
2022-08-10T18:42:51.052Z,101039.03
2022-08-10T18:45:33.504Z,101040.63
2022-08-10T18:48:16.301Z,101039.78
2022-08-10T18:50:49.706Z,101042.81
2022-08-10T18:53:33.197Z,101036.44
2022-08-10T18:56:28.328Z,101048.22
2022-08-10T18:59:05.176Z,101037.91
2022-08-10T19:01:55.619Z,101041.41
2022-08-10T19:04:40.088Z,101039.97
2022-08-10T19:07:34.853Z,101046.91
2022-08-10T19:10:26.756Z,101049.09
2022-08-10T19:13:07.123Z,101046.22
2022-08-10T19:15:51.789Z,101055.22
2022-08-10T19:18:37.199Z,101057.91
2022-08-10T19:21:13.131Z,101058.19
2022-08-10T19:23:59.111Z,101058.09
2022-08-10T19:26:45.029Z,101059.56
2022-08-10T19:30:10.270Z,101059.50
2022-08-10T19:32:36.171Z,101060.84
2022-08-10T19:35:29.466Z,101067.88
2022-08-10T19:38:24.905Z,101067.09
2022-08-10T19:41:09.331Z,101070.47
2022-08-10T19:44:00.844Z,101074.06
2022-08-10T19:46:47.298Z,101077.78
2022-08-10T19:49:41.452Z,101074.13
2022-08-10T19:52:25.536Z,101069.78
2022-08-10T19:55:21.623Z,101071.28
2022-08-10T19:58:07.094Z,101073.16
2022-08-10T20:00:56.065Z,101077.09
2022-08-10T20:03:52.776Z,101081.34
2022-08-10T20:06:39.856Z,101083.50
2022-08-10T20:09:30.154Z,101079.50
2022-08-10T20:12:02.149Z,101079.41
2022-08-10T20:15:07.422Z,101083.69
2022-08-10T20:17:51.549Z,101082.78
2022-08-10T20:20:30.672Z,101078.50
2022-08-10T20:23:22.932Z,101082.44
2022-08-10T20:25:57.742Z,101083.13
2022-08-10T20:29:16.482Z,101074.72
2022-08-10T20:32:17.584Z,101084.53
2022-08-10T20:35:04.594Z,101094.53
2022-08-10T20:37:41.187Z,101076.53
2022-08-10T20:40:46.961Z,101084.88
2022-08-10T20:43:17.113Z,101085.69
2022-08-10T20:46:07.831Z,101092.78
2022-08-10T20:48:40.903Z,101088.66
2022-08-10T20:51:13.957Z,101091.72
2022-08-10T20:53:49.499Z,101091.53
2022-08-10T20:56:48.294Z,101095.56
2022-08-10T20:59:23.502Z,101093.63
2022-08-10T21:02:28.123Z,101092.03
2022-08-10T21:05:19.168Z,101081.84
2022-08-10T21:08:03.674Z,101085.97
2022-08-10T21:11:02.302Z,101076.31
2022-08-10T21:14:01.725Z,101086.06
2022-08-10T21:16:28.320Z,101077.59
2022-08-10T21:19:18.496Z,101079.00
2022-08-10T21:22:15.728Z,101074.66
2022-08-10T21:24:52.221Z,101079.94
2022-08-10T21:27:56.491Z,101080.94
2022-08-10T21:31:00.146Z,101079.81
2022-08-10T21:33:38.563Z,101074.00
2022-08-10T21:36:37.518Z,101080.41
2022-08-10T21:39:42.966Z,101079.69
2022-08-10T21:42:47.334Z,101083.16
2022-08-10T21:46:04.249Z,101088.41
2022-08-10T21:49:06.750Z,101082.94
2022-08-10T21:52:04.169Z,101082.53
2022-08-10T21:55:06.354Z,101086.56
2022-08-10T21:58:16.221Z,101084.50
2022-08-10T22:01:13.072Z,101089.66
2022-08-10T22:04:02.147Z,101089.09
2022-08-10T22:06:53.019Z,101082.47
2022-08-10T22:09:45.943Z,101080.41
2022-08-10T22:12:34.233Z,101079.59
2022-08-10T22:16:03.323Z,101078.81
2022-08-10T22:18:58.771Z,101077.28
2022-08-10T22:21:59.216Z,101078.31
2022-08-10T22:25:05.685Z,101078.31
2022-08-10T22:28:02.931Z,101081.38
2022-08-10T22:31:28.681Z,101081.38
2022-08-10T22:34:38.248Z,101085.16
2022-08-10T22:37:40.488Z,101083.75
2022-08-10T22:40:32.242Z,101095.84
2022-08-10T22:43:35.523Z,101093.47
2022-08-10T22:46:25.605Z,101090.94
2022-08-10T22:49:01.489Z,101094.03
2022-08-10T22:51:49.918Z,101083.06
2022-08-10T22:54:44.480Z,101096.31
2022-08-10T22:57:34.188Z,101086.81
2022-08-10T23:00:16.245Z,101092.66
2022-08-10T23:02:57.396Z,101090.09
2022-08-10T23:05:56.172Z,101085.31
2022-08-10T23:08:31.246Z,101085.50
2022-08-10T23:11:05.990Z,101086.31
2022-08-10T23:13:37.817Z,101089.03
2022-08-10T23:16:27.293Z,101087.78
2022-08-10T23:19:11.034Z,101083.66
2022-08-10T23:21:47.791Z,101080.97
2022-08-10T23:24:35.237Z,101084.03
2022-08-10T23:27:10.353Z,101088.72
2022-08-10T23:30:03.539Z,101084.03
2022-08-10T23:32:33.335Z,101091.78
2022-08-10T23:36:30.313Z,101091.78
2022-08-10T23:37:58.139Z,101084.13
2022-08-10T23:40:26.738Z,101086.28
2022-08-10T23:42:55.657Z,101089.81
2022-08-10T23:45:25.167Z,101085.13
2022-08-10T23:47:53.906Z,101084.06
2022-08-10T23:50:23.335Z,101085.75
2022-08-10T23:52:52.702Z,101082.34
2022-08-10T23:55:24.150Z,101089.53
2022-08-10T23:58:05.089Z,101093.56
